Anniston Metropolitan Airport Anniston US
ICAO: KANB
IATA: ANB
Category: Medium
Scheduled Services: No

Elevation: 612 ft
TransAlt. 18000 ft.

Airport Communications:
BIRMINGHAM APP/DEP:125.45
ASOS:119.675
CTAF:123.6
RDO:122.2
UNICOM:123

KANB Zoom In..

If you have problems with the map follow the link
https://www.worldairports.se/pages/airport.php?
ICAO=KANB

Runways:

(A) RW 05 length 7000 ft width 150 ft
ILS 111.50 / hdg 49

(B) RW 23 length 7000 ft width 150 ft
---- / hdg 229

Location; KANB
Day. 29 / Time. 17.53 Zulu
* Altimeter: 30.00
* Temperature: 12° c. 53.6°f.
* Wind from: 060° Speed 05 kn.
Dewpoint: 03° c.
Visibility: 10 Statute Miles.
Clouds: Broken 7000 ft.
Clouds: Overcast 1000 ft.

KANB 291753Z AUTO 06005KT 10SM BKN070 OVC100 12/03 A3000 RMK AO2 SLP165 T01170028 10117 20067 56007


Wind From 060°
Speed 05 kn.

 
 
jpsmedia worldairports.se 2020   terms of use